KRWF

Redwood Falls Municipal Airport

Redwood Falls, Minnesota, USA
METAR KRWF 181253Z AUTO 19007KT 10SM CLR M01/M03 A2988 RMK AO2 SLP131 T10111033
Observed Flight Rules
Dec-18 @ 12:53 UTC (18 minutes ago) Visual Flight Rules
Wind Visibility Clouds
190° at 7 knots 10 miles
  • Clear skies
Temperatures Readings
Current -1°C / 30°F
Dewpoint -3°C / 27°F
Humidity 86%
Altimeter 29.88" Hg
Pressure 1013.1 hPa
Elevation 311
METAR KRWF 181253Z AUTO 19007KT 10SM CLR M01/M03 A2988 RMK AO2 SLP131 T10111033
Observed Flight Rules
Dec-18 @ 12:53 UTC
(18 minutes ago)
VFR
Wind Visibility
190° at 7 knots 10 miles
Clouds
  • Clear skies
Temperature Dewpoint
-1°C / 30°F -3°C / 27°F
Humidity Altimeter Pressure
86% 29.88" Hg 1013.1 hPa